createdAt,value
2018-01-10T00:00:04.804Z,5.3
2018-01-10T00:01:05.316Z,5.3
2018-01-10T00:02:04.916Z,5.2
2018-01-10T00:03:04.878Z,5.2
2018-01-10T00:04:05.471Z,5.2
2018-01-10T00:05:05.364Z,5.2
2018-01-10T00:06:05.227Z,5.2
2018-01-10T00:07:05.294Z,5.2
2018-01-10T00:08:04.955Z,5.2
2018-01-10T00:09:04.643Z,5.2
2018-01-10T00:10:05.437Z,5.2
2018-01-10T00:11:05.230Z,5.2
2018-01-10T00:12:04.981Z,5.2
2018-01-10T00:13:04.672Z,5.1
2018-01-10T00:14:05.490Z,5.1
2018-01-10T00:15:05.438Z,5.1
2018-01-10T00:16:04.800Z,5.1
2018-01-10T00:17:05.438Z,5.1
2018-01-10T00:18:05.297Z,5.1
2018-01-10T00:19:05.029Z,5.1
2018-01-10T00:20:04.787Z,5.1
2018-01-10T00:21:05.606Z,5.1
2018-01-10T00:22:04.956Z,5
2018-01-10T00:23:04.697Z,5
2018-01-10T00:24:04.606Z,5
2018-01-10T00:25:05.292Z,5
2018-01-10T00:26:04.923Z,5
2018-01-10T00:27:05.441Z,5
2018-01-10T00:28:04.717Z,5
2018-01-10T00:29:05.185Z,5
2018-01-10T00:30:04.691Z,4.9
2018-01-10T00:31:05.380Z,4.9
2018-01-10T00:32:04.746Z,4.9
2018-01-10T00:33:04.766Z,4.9
2018-01-10T00:34:05.287Z,4.9
2018-01-10T00:35:04.995Z,4.9
2018-01-10T00:36:04.659Z,4.8
2018-01-10T00:37:04.858Z,4.8
2018-01-10T00:38:04.778Z,4.8
2018-01-10T00:39:05.553Z,4.8
2018-01-10T00:40:05.536Z,4.8
2018-01-10T00:41:05.038Z,4.8
2018-01-10T00:42:04.598Z,4.8
2018-01-10T00:43:05.206Z,4.7
2018-01-10T00:44:04.795Z,4.7
2018-01-10T00:45:04.781Z,4.7
2018-01-10T00:46:05.333Z,4.7
2018-01-10T00:47:04.800Z,4.7
2018-01-10T00:48:04.761Z,4.6
2018-01-10T00:49:05.222Z,4.6
2018-01-10T00:50:04.862Z,4.6
2018-01-10T00:51:05.437Z,4.6
2018-01-10T00:52:05.015Z,4.6
2018-01-10T00:53:05.067Z,4.6
2018-01-10T00:54:05.338Z,4.6
2018-01-10T00:55:04.938Z,4.6
2018-01-10T00:56:04.904Z,4.5
2018-01-10T00:57:05.238Z,4.5
2018-01-10T00:58:04.758Z,4.5
2018-01-10T00:59:04.829Z,4.5
2018-01-10T01:00:05.221Z,4.5
2018-01-10T01:01:04.742Z,4.5
2018-01-10T01:02:05.155Z,4.5
2018-01-10T01:03:04.947Z,4.5
2018-01-10T01:04:05.531Z,4.5
2018-01-10T01:05:05.050Z,4.5
2018-01-10T01:06:04.729Z,4.5
2018-01-10T01:07:05.127Z,4.4
2018-01-10T01:08:04.752Z,4.4
2018-01-10T01:09:04.789Z,4.4
2018-01-10T01:10:05.577Z,4.4
2018-01-10T01:11:04.946Z,4.4
2018-01-10T01:12:05.654Z,4.3
2018-01-10T01:13:05.272Z,4.3
2018-01-10T01:14:04.971Z,4.3
2018-01-10T01:15:05.298Z,4.3
2018-01-10T01:16:04.788Z,4.3
2018-01-10T01:17:04.742Z,4.2
2018-01-10T01:18:05.630Z,4.2
2018-01-10T01:19:04.971Z,4.2
2018-01-10T01:20:05.550Z,4.2
2018-01-10T01:21:05.461Z,4.1
2018-01-10T01:22:05.314Z,4.1
2018-01-10T01:23:04.977Z,4.1
2018-01-10T01:24:04.953Z,4
2018-01-10T01:25:04.751Z,4
2018-01-10T01:26:04.728Z,4
2018-01-10T01:27:05.069Z,4
2018-01-10T01:28:05.005Z,4
2018-01-10T01:29:05.695Z,3.9
2018-01-10T01:30:05.433Z,3.9
2018-01-10T01:31:04.921Z,3.9
2018-01-10T01:32:05.612Z,3.9
2018-01-10T01:33:04.998Z,3.9
2018-01-10T01:34:04.921Z,3.9
2018-01-10T01:35:04.636Z,3.8
2018-01-10T01:36:05.166Z,3.8
2018-01-10T01:37:04.953Z,3.8
2018-01-10T01:38:04.907Z,3.8
2018-01-10T01:39:04.865Z,3.8
2018-01-10T01:40:05.290Z,3.8
2018-01-10T01:41:04.837Z,3.7
2018-01-10T01:42:04.742Z,3.7
2018-01-10T01:43:05.436Z,3.7
2018-01-10T01:44:04.843Z,3.7
2018-01-10T01:45:05.470Z,3.7
2018-01-10T01:46:05.392Z,3.7
2018-01-10T01:47:04.672Z,3.6
2018-01-10T01:48:04.727Z,3.6
2018-01-10T01:49:04.977Z,3.6
2018-01-10T01:50:05.558Z,3.6
2018-01-10T01:51:05.526Z,3.6
2018-01-10T01:52:04.998Z,3.6
2018-01-10T01:53:05.353Z,3.6
2018-01-10T01:54:04.958Z,3.5
2018-01-10T01:55:05.304Z,3.5
2018-01-10T01:56:04.827Z,3.5
2018-01-10T01:57:04.636Z,3.5
2018-01-10T01:58:05.282Z,3.5
2018-01-10T01:59:04.987Z,3.5
2018-01-10T02:00:05.656Z,3.5
2018-01-10T02:01:05.625Z,3.5
2018-01-10T02:02:05.529Z,3.5
2018-01-10T02:03:05.081Z,3.5
2018-01-10T02:04:04.887Z,3.5
2018-01-10T02:05:04.649Z,3.5
2018-01-10T02:06:05.592Z,3.5
2018-01-10T02:07:05.472Z,3.5
2018-01-10T02:08:05.429Z,3.5
2018-01-10T02:09:04.920Z,3.5
2018-01-10T02:10:05.386Z,3.5
2018-01-10T02:11:05.042Z,3.5
2018-01-10T02:12:05.333Z,3.4
2018-01-10T02:13:05.307Z,3.4
2018-01-10T02:14:05.265Z,3.4
2018-01-10T02:15:05.065Z,3.4
2018-01-10T02:16:04.785Z,3.4
2018-01-10T02:17:04.691Z,3.3
2018-01-10T02:18:05.618Z,3.3
2018-01-10T02:19:05.327Z,3.3
2018-01-10T02:20:04.911Z,3.3
2018-01-10T02:21:04.769Z,3.3
2018-01-10T02:22:05.166Z,3.2
2018-01-10T02:23:04.681Z,3.2
2018-01-10T02:24:04.730Z,3.2
2018-01-10T02:25:04.647Z,3.1
2018-01-10T02:26:05.044Z,3.1
2018-01-10T02:27:04.982Z,3.1
2018-01-10T02:28:04.787Z,3.1
2018-01-10T02:29:04.801Z,3.1
2018-01-10T02:30:04.659Z,3
2018-01-10T02:31:04.710Z,3
2018-01-10T02:32:05.165Z,3
2018-01-10T02:33:04.737Z,3
2018-01-10T02:34:04.627Z,3
2018-01-10T02:35:05.472Z,3
2018-01-10T02:36:05.473Z,3
2018-01-10T02:37:04.982Z,3
2018-01-10T02:38:05.614Z,2.9
2018-01-10T02:39:05.319Z,2.9
2018-01-10T02:40:06.284Z,2.9
2018-01-10T02:41:05.516Z,2.9
2018-01-10T02:42:04.981Z,2.9
2018-01-10T02:43:04.750Z,2.9
2018-01-10T02:44:05.304Z,2.9
2018-01-10T02:45:05.016Z,2.9
2018-01-10T02:46:04.730Z,2.9
2018-01-10T02:47:05.301Z,2.9
2018-01-10T02:48:05.179Z,2.9
2018-01-10T02:49:04.658Z,2.9
2018-01-10T02:50:04.952Z,2.9
2018-01-10T02:51:05.530Z,2.8
2018-01-10T02:52:05.077Z,2.8
2018-01-10T02:53:05.026Z,2.8
2018-01-10T02:54:04.891Z,2.8
2018-01-10T02:55:05.526Z,2.8
2018-01-10T02:56:05.037Z,2.8
2018-01-10T02:57:04.769Z,2.8
2018-01-10T02:58:05.410Z,2.7
2018-01-10T02:59:04.913Z,2.7
2018-01-10T03:00:05.682Z,2.7
2018-01-10T03:01:05.077Z,2.7
2018-01-10T03:02:04.763Z,2.7
2018-01-10T03:03:04.762Z,2.6
2018-01-10T03:04:05.307Z,2.6
2018-01-10T03:05:04.828Z,2.6
2018-01-10T03:06:05.107Z,2.5
2018-01-10T03:07:05.490Z,2.6
2018-01-10T03:08:05.265Z,2.5
2018-01-10T03:09:04.621Z,2.5
2018-01-10T03:10:05.343Z,2.5
2018-01-10T03:11:05.169Z,2.5
2018-01-10T03:12:04.709Z,2.5
2018-01-10T03:13:05.039Z,2.5
2018-01-10T03:14:05.639Z,2.5
2018-01-10T03:15:05.107Z,2.5
2018-01-10T03:16:04.723Z,2.5
2018-01-10T03:17:04.752Z,2.5
2018-01-10T03:18:05.308Z,2.5
2018-01-10T03:19:05.392Z,2.5
2018-01-10T03:20:04.966Z,2.5
2018-01-10T03:21:05.352Z,2.5
2018-01-10T03:22:04.859Z,2.5
2018-01-10T03:23:05.425Z,2.4
2018-01-10T03:24:05.140Z,2.4
2018-01-10T03:25:04.708Z,2.4
2018-01-10T03:26:05.353Z,2.4
2018-01-10T03:27:05.544Z,2.4
2018-01-10T03:28:04.982Z,2.4
2018-01-10T03:29:05.126Z,2.3
2018-01-10T03:30:04.624Z,2.3
2018-01-10T03:31:05.344Z,2.3
2018-01-10T03:32:05.144Z,2.3
2018-01-10T03:33:04.638Z,2.3
2018-01-10T03:34:05.375Z,2.3
2018-01-10T03:35:04.884Z,2.3
2018-01-10T03:36:04.868Z,2.2
2018-01-10T03:37:05.040Z,2.2
2018-01-10T03:38:05.089Z,2.2
2018-01-10T03:39:04.910Z,2.2
2018-01-10T03:40:04.764Z,2.2
2018-01-10T03:41:04.770Z,2.2
2018-01-10T03:42:04.749Z,2.1
2018-01-10T03:43:05.645Z,2.2
2018-01-10T03:44:05.139Z,2.1
2018-01-10T03:45:04.821Z,2.2
2018-01-10T03:46:04.691Z,2.2
2018-01-10T03:47:04.626Z,2.2
2018-01-10T03:48:05.163Z,2.2
2018-01-10T03:49:05.349Z,2.2
2018-01-10T03:50:04.627Z,2.2
2018-01-10T03:51:05.441Z,2.2
2018-01-10T03:52:05.145Z,2.2
2018-01-10T03:53:04.689Z,2.2
2018-01-10T03:54:05.606Z,2.2
2018-01-10T03:55:05.130Z,2.2
2018-01-10T03:56:04.631Z,2.2
2018-01-10T03:57:05.212Z,2.2
2018-01-10T03:58:04.933Z,2.2
2018-01-10T03:59:04.850Z,2.2
2018-01-10T04:00:05.161Z,2.2
2018-01-10T04:01:04.734Z,2.2
2018-01-10T04:02:04.667Z,2.2
2018-01-10T04:03:05.534Z,2.2
2018-01-10T04:04:05.357Z,2.2
2018-01-10T04:05:05.238Z,2.2
2018-01-10T04:06:04.854Z,2.2
2018-01-10T04:07:04.661Z,2.2
2018-01-10T04:08:05.164Z,2.2
2018-01-10T04:09:05.176Z,2.2
2018-01-10T04:10:05.150Z,2.2
2018-01-10T04:11:05.452Z,2.2
2018-01-10T04:12:05.469Z,2.2
2018-01-10T04:13:05.323Z,2.2
2018-01-10T04:14:04.751Z,2.2
2018-01-10T04:15:04.653Z,2.2
2018-01-10T04:16:05.242Z,2.2
2018-01-10T04:17:05.020Z,2.1
2018-01-10T04:18:05.526Z,2.2
2018-01-10T04:19:05.167Z,2.2
2018-01-10T04:20:05.096Z,2.2
2018-01-10T04:21:05.295Z,2.2
2018-01-10T04:22:05.330Z,2.2
2018-01-10T04:23:04.690Z,2.2
2018-01-10T04:24:05.229Z,2.2
2018-01-10T04:25:05.189Z,2.2
2018-01-10T04:26:05.034Z,2.2
2018-01-10T04:27:05.036Z,2.2
2018-01-10T04:28:04.887Z,2.2
2018-01-10T04:29:04.891Z,2.2
2018-01-10T04:30:05.534Z,2.2
2018-01-10T04:31:05.421Z,2.2
2018-01-10T04:32:05.047Z,2.2
2018-01-10T04:33:04.954Z,2.2
2018-01-10T04:34:04.903Z,2.2
2018-01-10T04:35:04.754Z,2.2
2018-01-10T04:36:05.225Z,2.2
2018-01-10T04:37:04.746Z,2.2
2018-01-10T04:38:05.528Z,2.2
2018-01-10T04:39:05.342Z,2.2
2018-01-10T04:40:05.186Z,2.2
2018-01-10T04:41:04.895Z,2.2
2018-01-10T04:42:04.856Z,2.3
2018-01-10T04:43:05.340Z,2.2
2018-01-10T04:44:05.003Z,2.3
2018-01-10T04:45:04.784Z,2.2
2018-01-10T04:46:05.545Z,2.3
2018-01-10T04:47:05.401Z,2.3
2018-01-10T04:48:05.301Z,2.3
2018-01-10T04:49:04.882Z,2.3
2018-01-10T04:50:05.548Z,2.3
2018-01-10T04:51:05.447Z,2.3
2018-01-10T04:52:05.506Z,2.3
2018-01-10T04:53:05.200Z,2.3
2018-01-10T04:54:05.040Z,2.3
2018-01-10T04:55:05.523Z,2.3
2018-01-10T04:56:05.452Z,2.3
2018-01-10T04:57:04.890Z,2.3
2018-01-10T04:58:05.573Z,2.3
2018-01-10T04:59:05.391Z,2.3
2018-01-10T05:00:05.005Z,2.4
2018-01-10T05:01:05.010Z,2.4
2018-01-10T05:02:04.911Z,2.4
2018-01-10T05:03:05.419Z,2.4
2018-01-10T05:04:05.625Z,2.4
2018-01-10T05:05:05.501Z,2.5
2018-01-10T05:06:05.261Z,2.5
2018-01-10T05:07:05.049Z,2.5
2018-01-10T05:08:05.056Z,2.5
2018-01-10T05:09:05.511Z,2.5
2018-01-10T05:10:04.742Z,2.5
2018-01-10T05:11:04.692Z,2.5
2018-01-10T05:12:05.061Z,2.5
2018-01-10T05:13:04.886Z,2.5
2018-01-10T05:14:05.601Z,2.5
2018-01-10T05:15:05.178Z,2.5
2018-01-10T05:16:04.751Z,2.5
2018-01-10T05:17:04.644Z,2.5
2018-01-10T05:18:05.215Z,2.6
2018-01-10T05:19:05.163Z,2.6
2018-01-10T05:20:04.863Z,2.6
2018-01-10T05:21:05.397Z,2.6
2018-01-10T05:22:04.872Z,2.6
2018-01-10T05:23:05.134Z,2.6
2018-01-10T05:24:05.392Z,2.6
2018-01-10T05:25:05.818Z,2.6
2018-01-10T05:26:05.376Z,2.6
2018-01-10T05:27:05.354Z,2.6
2018-01-10T05:28:05.237Z,2.6
2018-01-10T05:29:04.679Z,2.6
2018-01-10T05:30:05.367Z,2.6
2018-01-10T05:31:05.074Z,2.6
2018-01-10T05:32:05.525Z,2.6
2018-01-10T05:33:04.766Z,2.6
2018-01-10T05:34:04.709Z,2.6
2018-01-10T05:35:05.514Z,2.5
2018-01-10T05:36:05.072Z,2.5
2018-01-10T05:37:05.240Z,2.5
2018-01-10T05:38:04.846Z,2.5
2018-01-10T05:39:04.755Z,2.5
2018-01-10T05:40:05.058Z,2.5
2018-01-10T05:41:04.898Z,2.5
2018-01-10T05:42:05.670Z,2.5
2018-01-10T05:43:05.584Z,2.5
2018-01-10T05:44:04.976Z,2.5
2018-01-10T05:45:05.080Z,2.5
2018-01-10T05:46:04.875Z,2.5
2018-01-10T05:47:04.847Z,2.5
2018-01-10T05:48:05.407Z,2.5
2018-01-10T05:49:05.027Z,2.4
2018-01-10T05:50:05.610Z,2.4
2018-01-10T05:51:05.200Z,2.4
2018-01-10T05:52:05.602Z,2.4
2018-01-10T05:53:05.377Z,2.4
2018-01-10T05:54:05.457Z,2.4
2018-01-10T05:55:05.460Z,2.4
2018-01-10T05:56:05.018Z,2.4
2018-01-10T05:57:05.581Z,2.4
2018-01-10T05:58:05.119Z,2.3
2018-01-10T05:59:04.657Z,2.3
2018-01-10T06:00:04.765Z,2.3
2018-01-10T06:01:04.713Z,2.3
2018-01-10T06:02:04.744Z,2.3
2018-01-10T06:03:05.578Z,2.3
2018-01-10T06:04:05.377Z,2.3
2018-01-10T06:05:04.682Z,2.3
2018-01-10T06:06:05.628Z,2.4
2018-01-10T06:07:05.248Z,2.4
2018-01-10T06:08:05.047Z,2.4
2018-01-10T06:09:05.389Z,2.4
2018-01-10T06:10:05.283Z,2.4
2018-01-10T06:11:05.335Z,2.4
2018-01-10T06:12:05.236Z,2.4
2018-01-10T06:13:05.080Z,2.3
2018-01-10T06:14:04.758Z,2.3
2018-01-10T06:15:05.209Z,2.3
2018-01-10T06:16:04.940Z,2.3
2018-01-10T06:17:05.427Z,2.3
2018-01-10T06:18:05.186Z,2.3
2018-01-10T06:19:04.755Z,2.3
2018-01-10T06:20:05.636Z,2.3
2018-01-10T06:21:05.580Z,2.3
2018-01-10T06:22:05.536Z,2.3
2018-01-10T06:23:05.147Z,2.3
2018-01-10T06:24:05.458Z,2.3
2018-01-10T06:25:04.996Z,2.3
2018-01-10T06:26:05.587Z,2.3
2018-01-10T06:27:05.512Z,2.3
2018-01-10T06:28:05.459Z,2.3
2018-01-10T06:29:05.038Z,2.3
2018-01-10T06:30:05.130Z,2.3
2018-01-10T06:31:05.103Z,2.3
2018-01-10T06:32:04.998Z,2.3
2018-01-10T06:33:04.912Z,2.3
2018-01-10T06:34:04.855Z,2.3
2018-01-10T06:35:04.777Z,2.3
2018-01-10T06:36:05.132Z,2.3
2018-01-10T06:37:05.048Z,2.3
2018-01-10T06:38:05.155Z,2.2
2018-01-10T06:39:04.787Z,2.2
2018-01-10T06:40:04.677Z,2.2
2018-01-10T06:41:05.202Z,2.3
2018-01-10T06:42:04.645Z,2.2
2018-01-10T06:43:04.961Z,2.2
2018-01-10T06:44:04.713Z,2.2
2018-01-10T06:45:05.010Z,2.3
2018-01-10T06:46:04.943Z,2.3
2018-01-10T06:47:05.241Z,2.3
2018-01-10T06:48:05.122Z,2.3
2018-01-10T06:49:04.670Z,2.3
2018-01-10T06:50:05.530Z,2.3
2018-01-10T06:51:05.053Z,2.3
2018-01-10T06:52:05.054Z,2.3
2018-01-10T06:53:04.841Z,2.3
2018-01-10T06:54:05.378Z,2.3
2018-01-10T06:55:05.114Z,2.3
2018-01-10T06:56:04.724Z,2.3
2018-01-10T06:57:05.195Z,2.3
2018-01-10T06:58:05.233Z,2.3
2018-01-10T06:59:04.840Z,2.3
2018-01-10T07:00:05.315Z,2.3
2018-01-10T07:01:05.307Z,2.3
2018-01-10T07:02:05.421Z,2.4
2018-01-10T07:03:05.026Z,2.4
2018-01-10T07:04:05.534Z,2.4
2018-01-10T07:05:05.554Z,2.4
2018-01-10T07:06:05.107Z,2.4
2018-01-10T07:07:05.013Z,2.4
2018-01-10T07:08:05.067Z,2.4
2018-01-10T07:09:04.909Z,2.5
2018-01-10T07:10:04.979Z,2.5
2018-01-10T07:11:04.953Z,2.5
2018-01-10T07:12:05.660Z,2.6
2018-01-10T07:13:04.932Z,2.7
2018-01-10T07:14:05.351Z,2.7
2018-01-10T07:15:05.099Z,2.7
2018-01-10T07:16:05.072Z,2.8
2018-01-10T07:17:05.677Z,2.8
2018-01-10T07:18:05.685Z,2.8
2018-01-10T07:19:04.680Z,2.8
2018-01-10T07:20:05.534Z,2.8
2018-01-10T07:21:05.556Z,2.8
2018-01-10T07:22:05.187Z,2.8
2018-01-10T07:23:04.907Z,2.8
2018-01-10T07:24:05.628Z,2.8
2018-01-10T07:25:05.356Z,2.8
2018-01-10T07:26:04.616Z,2.8
2018-01-10T07:27:05.177Z,2.8
2018-01-10T07:28:05.085Z,2.8
2018-01-10T07:29:05.679Z,2.8
2018-01-10T07:30:05.543Z,2.8
2018-01-10T07:31:05.492Z,2.7
2018-01-10T07:32:05.293Z,2.7
2018-01-10T07:33:05.178Z,2.7
2018-01-10T07:34:05.164Z,2.7
2018-01-10T07:35:04.758Z,2.7
2018-01-10T07:36:05.174Z,2.7
2018-01-10T07:37:05.545Z,2.7
2018-01-10T07:38:04.761Z,2.7
2018-01-10T07:39:05.192Z,2.6
2018-01-10T07:40:05.047Z,2.6
2018-01-10T07:41:04.786Z,2.6
2018-01-10T07:42:05.282Z,2.6
2018-01-10T07:43:05.036Z,2.6
2018-01-10T07:44:05.031Z,2.6
2018-01-10T07:45:05.231Z,2.6
2018-01-10T07:46:04.862Z,2.6
2018-01-10T07:47:04.888Z,2.6
2018-01-10T07:48:05.428Z,2.6
2018-01-10T07:49:04.849Z,2.6
2018-01-10T07:50:04.788Z,2.6
2018-01-10T07:51:05.157Z,2.6
2018-01-10T07:52:04.744Z,2.6
2018-01-10T07:53:05.450Z,2.6
2018-01-10T07:54:05.496Z,2.6
2018-01-10T07:55:05.055Z,2.6
2018-01-10T07:56:04.728Z,2.6
2018-01-10T07:57:04.871Z,2.6
2018-01-10T07:58:05.101Z,2.6
2018-01-10T07:59:05.414Z,2.6
2018-01-10T08:00:04.957Z,2.6
2018-01-10T08:01:05.293Z,2.6
2018-01-10T08:02:04.718Z,2.6
2018-01-10T08:03:04.665Z,2.6
2018-01-10T08:04:05.222Z,2.6
2018-01-10T08:05:04.764Z,2.6
2018-01-10T08:06:05.419Z,2.6
2018-01-10T08:07:04.978Z,2.6
2018-01-10T08:08:04.815Z,2.6
2018-01-10T08:09:05.610Z,2.6
2018-01-10T08:10:05.248Z,2.6
2018-01-10T08:11:04.785Z,2.6
2018-01-10T08:12:05.589Z,2.6
2018-01-10T08:13:05.187Z,2.6
2018-01-10T08:14:05.318Z,2.6
2018-01-10T08:15:05.276Z,2.6
2018-01-10T08:16:04.958Z,2.6
2018-01-10T08:17:05.838Z,2.6
2018-01-10T08:18:06.506Z,2.6
2018-01-10T08:19:04.636Z,2.6
2018-01-10T08:20:04.850Z,2.6
2018-01-10T08:21:04.864Z,2.6
2018-01-10T08:22:04.892Z,2.6
2018-01-10T08:23:05.549Z,2.6
2018-01-10T08:24:05.143Z,2.6
2018-01-10T08:25:04.920Z,2.6
2018-01-10T08:26:05.525Z,2.6
2018-01-10T08:27:05.241Z,2.6
2018-01-10T08:28:05.043Z,2.6
2018-01-10T08:29:05.360Z,2.6
2018-01-10T08:30:04.736Z,2.7
2018-01-10T08:31:05.496Z,2.7
2018-01-10T08:32:05.441Z,2.7
2018-01-10T08:33:05.228Z,2.7
2018-01-10T08:34:05.022Z,2.7
2018-01-10T08:35:04.779Z,2.7
2018-01-10T08:36:05.510Z,2.7
2018-01-10T08:37:04.693Z,2.8
2018-01-10T08:38:04.934Z,2.8
2018-01-10T08:39:04.763Z,2.8
2018-01-10T08:40:04.777Z,2.8
2018-01-10T08:41:05.638Z,2.8
2018-01-10T08:42:05.056Z,2.8
2018-01-10T08:43:05.643Z,2.8
2018-01-10T08:44:05.337Z,2.8
2018-01-10T08:45:04.995Z,2.8
2018-01-10T08:46:04.680Z,2.9
2018-01-10T08:47:05.251Z,2.9
2018-01-10T08:48:05.023Z,2.9
2018-01-10T08:49:04.996Z,2.9
2018-01-10T08:50:04.734Z,2.9
2018-01-10T08:51:05.192Z,3
2018-01-10T08:52:04.740Z,3
2018-01-10T08:53:05.194Z,3
2018-01-10T08:54:05.114Z,3
2018-01-10T08:55:05.119Z,3
2018-01-10T08:56:04.810Z,3.1
2018-01-10T08:57:05.410Z,3.1
2018-01-10T08:58:05.197Z,3.1
2018-01-10T08:59:04.776Z,3.1
2018-01-10T09:00:04.970Z,3.1
2018-01-10T09:01:05.464Z,3.1
2018-01-10T09:02:05.196Z,3.1
2018-01-10T09:03:04.975Z,3.2
2018-01-10T09:04:05.202Z,3.2
2018-01-10T09:05:04.895Z,3.2
2018-01-10T09:06:05.041Z,3.2
2018-01-10T09:07:05.094Z,3.2
2018-01-10T09:08:05.395Z,3.2
2018-01-10T09:09:04.938Z,3.3
2018-01-10T09:10:05.643Z,3.3
2018-01-10T09:11:04.859Z,3.3
2018-01-10T09:12:04.847Z,3.3
2018-01-10T09:13:04.876Z,3.3
2018-01-10T09:14:04.856Z,3.4
2018-01-10T09:15:05.568Z,3.4
2018-01-10T09:16:05.061Z,3.4
2018-01-10T09:17:05.558Z,3.5
2018-01-10T09:18:05.359Z,3.5
2018-01-10T09:19:05.228Z,3.5
2018-01-10T09:20:04.948Z,3.5
2018-01-10T09:21:04.898Z,3.5
2018-01-10T09:22:05.520Z,3.6
2018-01-10T09:23:05.148Z,3.6
2018-01-10T09:24:05.014Z,3.6
2018-01-10T09:25:05.464Z,3.6
2018-01-10T09:26:05.089Z,3.7
2018-01-10T09:27:05.156Z,3.7
2018-01-10T09:28:05.081Z,3.7
2018-01-10T09:29:05.543Z,3.7
2018-01-10T09:30:05.116Z,3.7
2018-01-10T09:31:04.737Z,3.8
2018-01-10T09:32:05.332Z,3.8
2018-01-10T09:33:05.393Z,3.8
2018-01-10T09:34:05.264Z,3.8
2018-01-10T09:35:05.030Z,3.8
2018-01-10T09:36:04.604Z,3.8
2018-01-10T09:37:05.648Z,3.9
2018-01-10T09:38:05.464Z,3.9
2018-01-10T09:39:05.339Z,3.9
2018-01-10T09:40:05.396Z,3.9
2018-01-10T09:41:05.253Z,3.9
2018-01-10T09:42:04.842Z,4
2018-01-10T09:43:04.827Z,4
2018-01-10T09:44:04.835Z,4
2018-01-10T09:45:04.706Z,4
2018-01-10T09:46:05.521Z,4
2018-01-10T09:47:05.180Z,4
2018-01-10T09:48:04.714Z,4
2018-01-10T09:49:05.302Z,4.1
2018-01-10T09:50:04.786Z,4.1
2018-01-10T09:51:04.752Z,4.1
2018-01-10T09:52:04.692Z,4.1
2018-01-10T09:53:05.591Z,4.1
2018-01-10T09:54:05.222Z,4.2
2018-01-10T09:55:04.718Z,4.2
2018-01-10T09:56:04.741Z,4.2
2018-01-10T09:57:05.594Z,4.3
2018-01-10T09:58:05.441Z,4.3
2018-01-10T09:59:05.301Z,4.3
2018-01-10T10:00:04.947Z,4.4
2018-01-10T10:01:04.956Z,4.4
2018-01-10T10:02:05.387Z,4.5
2018-01-10T10:03:04.619Z,4.5
2018-01-10T10:04:05.388Z,4.6
2018-01-10T10:05:04.770Z,4.6
2018-01-10T10:06:04.808Z,4.6
2018-01-10T10:07:05.499Z,4.7
2018-01-10T10:08:05.007Z,4.7
2018-01-10T10:09:05.506Z,4.8
2018-01-10T10:10:05.323Z,4.8
2018-01-10T10:11:05.557Z,4.9
2018-01-10T10:12:05.583Z,4.9
2018-01-10T10:13:05.068Z,5
2018-01-10T10:14:04.766Z,5
2018-01-10T10:15:04.940Z,5
2018-01-10T10:16:04.705Z,5.1
2018-01-10T10:17:04.813Z,5.1
2018-01-10T10:18:05.570Z,5.2
2018-01-10T10:19:05.456Z,5.2
2018-01-10T10:20:05.360Z,5.3
2018-01-10T10:21:05.104Z,5.3
2018-01-10T10:22:05.176Z,5.3
2018-01-10T10:23:05.439Z,5.4
2018-01-10T10:24:04.747Z,5.4
2018-01-10T10:25:05.328Z,5.4
2018-01-10T10:26:05.047Z,5.5
2018-01-10T10:27:04.977Z,5.5
2018-01-10T10:28:04.841Z,5.5
2018-01-10T10:29:05.516Z,5.5
2018-01-10T10:30:05.144Z,5.6
2018-01-10T10:31:05.072Z,5.6
2018-01-10T10:32:04.953Z,5.6
2018-01-10T10:33:05.585Z,5.6
2018-01-10T10:34:05.111Z,5.7
2018-01-10T10:35:05.036Z,5.7
2018-01-10T10:36:05.070Z,5.7
2018-01-10T10:37:05.453Z,5.8
2018-01-10T10:38:05.419Z,5.8
2018-01-10T10:39:05.386Z,5.9
2018-01-10T10:40:05.018Z,5.9
2018-01-10T10:41:05.126Z,6
2018-01-10T10:42:05.324Z,6
2018-01-10T10:43:05.117Z,6
2018-01-10T10:44:05.384Z,6.1
2018-01-10T10:45:04.960Z,6.1
2018-01-10T10:46:05.024Z,6.2
2018-01-10T10:47:05.168Z,6.2
2018-01-10T10:48:05.209Z,6.3
2018-01-10T10:49:05.114Z,6.3
2018-01-10T10:50:04.704Z,6.4
2018-01-10T10:51:04.591Z,6.4
2018-01-10T10:52:04.719Z,6.5
2018-01-10T10:53:04.824Z,6.5
2018-01-10T10:54:05.034Z,6.6
2018-01-10T10:55:05.599Z,6.6
2018-01-10T10:56:05.524Z,6.7
2018-01-10T10:57:05.182Z,6.7
2018-01-10T10:58:04.630Z,6.7
2018-01-10T10:59:04.662Z,6.8
2018-01-10T11:00:04.633Z,6.8
2018-01-10T11:01:05.389Z,6.9
2018-01-10T11:02:05.071Z,6.9
2018-01-10T11:03:04.652Z,6.9
2018-01-10T11:04:05.323Z,6.9
2018-01-10T11:05:05.275Z,7
2018-01-10T11:06:04.959Z,7
2018-01-10T11:07:04.856Z,7.1
2018-01-10T11:08:04.739Z,7.1
2018-01-10T11:09:05.419Z,7.1
2018-01-10T11:10:04.921Z,7.1
2018-01-10T11:11:04.889Z,7.2
2018-01-10T11:12:05.456Z,7.2
2018-01-10T11:13:05.261Z,7.2
2018-01-10T11:14:04.896Z,7.2
2018-01-10T11:15:05.507Z,7.3
2018-01-10T11:16:05.456Z,7.3
2018-01-10T11:17:05.219Z,7.3
2018-01-10T11:18:04.760Z,7.3
2018-01-10T11:19:04.680Z,7.3
2018-01-10T11:20:05.348Z,7.4
2018-01-10T11:21:04.724Z,7.4
2018-01-10T11:22:04.746Z,7.4
2018-01-10T11:23:05.067Z,7.4
2018-01-10T11:24:04.835Z,7.4
2018-01-10T11:25:04.773Z,7.4
2018-01-10T11:26:05.395Z,7.5
2018-01-10T11:27:05.116Z,7.5
2018-01-10T11:28:04.745Z,7.5
2018-01-10T11:29:05.388Z,7.5
2018-01-10T11:30:05.082Z,7.5
2018-01-10T11:31:05.087Z,7.6
2018-01-10T11:32:04.996Z,7.6
2018-01-10T11:33:04.778Z,7.6
2018-01-10T11:34:05.277Z,7.6
2018-01-10T11:35:04.780Z,7.6
2018-01-10T11:36:05.780Z,7.6
2018-01-10T11:37:05.190Z,7.7
2018-01-10T11:38:04.771Z,7.7
2018-01-10T11:39:04.754Z,7.7
2018-01-10T11:40:05.308Z,7.7
2018-01-10T11:41:04.821Z,7.7
2018-01-10T11:42:05.575Z,7.7
2018-01-10T11:43:05.641Z,7.7
2018-01-10T11:44:04.623Z,7.8
2018-01-10T11:45:05.070Z,7.8
2018-01-10T11:46:04.692Z,7.8
2018-01-10T11:47:04.660Z,7.8
2018-01-10T11:48:05.364Z,7.8
2018-01-10T11:49:05.020Z,7.8
2018-01-10T11:50:05.431Z,7.8
2018-01-10T11:51:04.899Z,7.8
2018-01-10T11:52:04.984Z,7.9
2018-01-10T11:53:05.120Z,7.9
2018-01-10T11:54:05.519Z,7.9
2018-01-10T11:55:05.623Z,7.9
2018-01-10T11:56:04.984Z,7.9
2018-01-10T11:57:05.166Z,7.9
2018-01-10T11:58:05.039Z,8
2018-01-10T11:59:04.789Z,8
2018-01-10T12:00:05.102Z,8
2018-01-10T12:01:04.730Z,8
2018-01-10T12:02:05.338Z,8
2018-01-10T12:03:04.826Z,8
2018-01-10T12:04:05.350Z,8.1
2018-01-10T12:05:04.761Z,8.1
2018-01-10T12:06:04.777Z,8.1
2018-01-10T12:07:05.062Z,8.1
2018-01-10T12:08:05.423Z,8.1
2018-01-10T12:09:05.631Z,8.1
2018-01-10T12:10:04.720Z,8.1
2018-01-10T12:11:05.463Z,8.1
2018-01-10T12:12:05.169Z,8.1
2018-01-10T12:13:05.147Z,8.1
2018-01-10T12:14:04.921Z,8.1
2018-01-10T12:15:04.986Z,8.1
2018-01-10T12:16:04.748Z,8.1
2018-01-10T12:17:05.409Z,8.1
2018-01-10T12:18:05.545Z,8.1
2018-01-10T12:19:05.087Z,8.1
2018-01-10T12:20:05.177Z,8.1
2018-01-10T12:21:04.701Z,8.1
2018-01-10T12:22:04.854Z,8.1
2018-01-10T12:23:04.825Z,8.1
2018-01-10T12:24:04.992Z,8.1
2018-01-10T12:25:05.290Z,8.1
2018-01-10T12:26:04.942Z,8.1
2018-01-10T12:27:04.746Z,8.1
2018-01-10T12:28:04.841Z,8.1
2018-01-10T12:29:05.502Z,8.1
2018-01-10T12:30:05.478Z,8.1
2018-01-10T12:31:04.941Z,8.1
2018-01-10T12:32:05.469Z,8.1
2018-01-10T12:33:05.263Z,8.1
2018-01-10T12:34:04.755Z,8.1
2018-01-10T12:35:04.878Z,8.1
2018-01-10T12:36:04.859Z,8.1
2018-01-10T12:37:04.919Z,8.1
2018-01-10T12:38:04.745Z,8.1
2018-01-10T12:39:05.203Z,8.1
2018-01-10T12:40:05.135Z,8.1
2018-01-10T12:41:04.628Z,8.1
2018-01-10T12:42:04.685Z,8.1
2018-01-10T12:43:04.804Z,8.1
2018-01-10T12:44:04.951Z,8.1
2018-01-10T12:45:04.750Z,8.1
2018-01-10T12:46:05.235Z,8.1
2018-01-10T12:47:05.065Z,8.1
2018-01-10T12:48:04.728Z,8.1
2018-01-10T12:49:05.285Z,8.1
2018-01-10T12:50:05.030Z,8.1
2018-01-10T12:51:05.121Z,8.1
2018-01-10T12:52:05.068Z,8.2
2018-01-10T12:53:04.603Z,8.2
2018-01-10T12:54:05.254Z,8.2
2018-01-10T12:55:05.413Z,8.2
2018-01-10T12:56:05.215Z,8.2
2018-01-10T12:57:05.227Z,8.2
2018-01-10T12:58:04.986Z,8.2
2018-01-10T12:59:05.053Z,8.2
2018-01-10T13:00:05.730Z,8.2
2018-01-10T13:01:05.526Z,8.2
2018-01-10T13:02:05.092Z,8.2
2018-01-10T13:03:04.714Z,8.2
2018-01-10T13:04:05.628Z,8.2
2018-01-10T13:05:05.285Z,8.2
2018-01-10T13:06:05.144Z,8.2
2018-01-10T13:07:04.998Z,8.2
2018-01-10T13:08:05.461Z,8.2
2018-01-10T13:09:05.285Z,8.2
2018-01-10T13:10:05.067Z,8.2
2018-01-10T13:11:05.708Z,8.2
2018-01-10T13:12:05.290Z,8.2
2018-01-10T13:13:05.701Z,8.2
2018-01-10T13:14:05.289Z,8.2
2018-01-10T13:15:04.932Z,8.2
2018-01-10T13:16:05.603Z,8.2
2018-01-10T13:17:05.547Z,8.2
2018-01-10T13:18:05.389Z,8.2
2018-01-10T13:19:05.157Z,8.2
2018-01-10T13:20:05.336Z,8.2
2018-01-10T13:21:04.851Z,8.2
2018-01-10T13:22:05.312Z,8.2
2018-01-10T13:23:04.943Z,8.2
2018-01-10T13:24:05.534Z,8.2
2018-01-10T13:25:05.145Z,8.2
2018-01-10T13:26:04.665Z,8.2
2018-01-10T13:27:05.456Z,8.2
2018-01-10T13:28:05.443Z,8.2
2018-01-10T13:29:05.094Z,8.2
2018-01-10T13:30:05.195Z,8.2
2018-01-10T13:31:05.842Z,8.2
2018-01-10T13:32:05.093Z,8.2
2018-01-10T13:33:05.334Z,8.2
2018-01-10T13:34:05.111Z,8.2
2018-01-10T13:35:04.644Z,8.2
2018-01-10T13:36:05.484Z,8.2
2018-01-10T13:37:05.316Z,8.2
2018-01-10T13:38:05.473Z,8.1
2018-01-10T13:39:04.817Z,8.1
2018-01-10T13:40:05.674Z,8.1
2018-01-10T13:41:05.214Z,8.2
2018-01-10T13:42:04.754Z,8.1
2018-01-10T13:43:05.516Z,8.1
2018-01-10T13:44:04.964Z,8.1
2018-01-10T13:45:04.860Z,8.1
2018-01-10T13:46:05.582Z,8.1
2018-01-10T13:47:05.324Z,8.1
2018-01-10T13:48:05.142Z,8.1
2018-01-10T13:49:05.046Z,8.1